createdAt,value
2023-02-14T00:00:57.770Z,6.93
2023-02-14T00:03:24.827Z,6.67
2023-02-14T00:05:51.622Z,6.87
2023-02-14T00:08:18.410Z,6.53
2023-02-14T00:10:45.175Z,6.60
2023-02-14T00:13:11.976Z,6.90
2023-02-14T00:15:38.749Z,6.37
2023-02-14T00:18:06.282Z,6.83
2023-02-14T00:20:33.060Z,7.30
2023-02-14T00:23:01.096Z,6.73
2023-02-14T00:25:27.933Z,6.67
2023-02-14T00:27:55.671Z,6.03
2023-02-14T00:30:22.950Z,6.73
2023-02-14T00:32:50.068Z,6.10
2023-02-14T00:35:17.051Z,6.47
2023-02-14T00:37:45.337Z,6.00
2023-02-14T00:40:12.394Z,5.80
2023-02-14T00:42:39.304Z,7.00
2023-02-14T00:45:06.378Z,5.90
2023-02-14T00:47:33.577Z,6.67
2023-02-14T00:50:04.393Z,5.50
2023-02-14T00:52:31.412Z,6.40
2023-02-14T00:54:58.693Z,6.07
2023-02-14T00:57:25.590Z,6.57
2023-02-14T00:59:52.405Z,7.13
2023-02-14T01:02:19.346Z,6.47
2023-02-14T01:04:46.215Z,6.40
2023-02-14T01:07:13.091Z,6.33
2023-02-14T01:09:39.865Z,6.43
2023-02-14T01:12:07.003Z,6.50
2023-02-14T01:14:33.790Z,6.27
2023-02-14T01:17:00.575Z,6.30
2023-02-14T01:19:27.397Z,6.40
2023-02-14T01:21:54.182Z,6.50
2023-02-14T01:24:21.497Z,6.53
2023-02-14T01:26:48.256Z,6.30
2023-02-14T01:29:15.046Z,6.73
2023-02-14T01:31:42.105Z,6.57
2023-02-14T01:34:08.962Z,6.80
2023-02-14T01:36:38.882Z,6.37
2023-02-14T01:39:13.669Z,7.10
2023-02-14T01:41:42.243Z,6.80
2023-02-14T01:44:29.100Z,7.23
2023-02-14T01:46:56.700Z,8.33
2023-02-14T01:49:32.474Z,7.70
2023-02-14T01:52:20.228Z,7.43
2023-02-14T01:54:57.906Z,7.80
2023-02-14T01:57:31.955Z,8.40
2023-02-14T02:00:20.647Z,7.50
2023-02-14T02:02:47.605Z,8.67
2023-02-14T02:05:15.856Z,8.63
2023-02-14T02:07:42.948Z,8.33
2023-02-14T02:10:10.147Z,7.87
2023-02-14T02:12:38.211Z,8.40
2023-02-14T02:15:06.579Z,8.30
2023-02-14T02:18:10.938Z,8.43
2023-02-14T02:20:49.585Z,8.77
2023-02-14T02:23:35.691Z,7.90
2023-02-14T02:26:27.886Z,8.90
2023-02-14T02:29:16.767Z,8.33
2023-02-14T02:31:59.793Z,9.33
2023-02-14T02:34:34.091Z,8.70
2023-02-14T02:37:04.623Z,8.90
2023-02-14T02:39:43.433Z,8.83
2023-02-14T02:42:25.190Z,8.60
2023-02-14T02:45:06.570Z,8.57
2023-02-14T02:47:44.671Z,8.87
2023-02-14T02:51:00.262Z,8.83
2023-02-14T02:53:44.335Z,8.90
2023-02-14T02:56:45.930Z,9.57
2023-02-14T02:59:28.363Z,9.13
2023-02-14T03:02:11.134Z,9.67
2023-02-14T03:04:54.550Z,9.60
2023-02-14T03:07:36.472Z,9.17
2023-02-14T03:10:07.745Z,9.23
2023-02-14T03:12:34.456Z,9.07
2023-02-14T03:15:09.961Z,8.77
2023-02-14T03:17:57.008Z,9.17
2023-02-14T03:20:43.836Z,9.50
2023-02-14T03:23:24.682Z,9.30
2023-02-14T03:26:19.531Z,9.53
2023-02-14T03:28:54.601Z,8.73
2023-02-14T03:31:28.154Z,9.50
2023-02-14T03:34:19.969Z,8.97
2023-02-14T03:36:56.929Z,9.30
2023-02-14T03:40:06.305Z,8.83
2023-02-14T03:42:40.371Z,9.47
2023-02-14T03:45:12.119Z,9.27
2023-02-14T03:47:43.206Z,9.23
2023-02-14T03:50:16.860Z,9.60
2023-02-14T03:52:45.766Z,9.67
2023-02-14T03:55:16.731Z,10.83
2023-02-14T03:58:06.524Z,9.40
2023-02-14T04:00:37.711Z,8.30
2023-02-14T04:03:11.856Z,9.13
2023-02-14T04:05:43.597Z,8.60
2023-02-14T04:08:12.278Z,8.43
2023-02-14T04:10:40.218Z,9.03
2023-02-14T04:13:07.113Z,8.60
2023-02-14T04:15:34.063Z,8.77
2023-02-14T04:18:19.552Z,8.90
2023-02-14T04:20:46.386Z,9.47
2023-02-14T04:23:13.298Z,9.63
2023-02-14T04:25:42.976Z,8.93
2023-02-14T04:28:09.893Z,9.63
2023-02-14T04:30:36.738Z,9.67
2023-02-14T04:33:04.157Z,10.60
2023-02-14T04:35:31.455Z,10.00
2023-02-14T04:37:58.232Z,9.80
2023-02-14T04:40:25.038Z,9.63
2023-02-14T04:42:51.835Z,9.43
2023-02-14T04:45:18.730Z,9.47
2023-02-14T04:47:46.066Z,9.57
2023-02-14T04:50:13.901Z,9.23
2023-02-14T04:52:41.416Z,9.60
2023-02-14T04:55:09.492Z,9.57
2023-02-14T04:57:36.646Z,9.33
2023-02-14T05:00:05.085Z,9.30
2023-02-14T05:02:31.931Z,10.23
2023-02-14T05:04:58.704Z,9.93
2023-02-14T05:07:25.579Z,10.10
2023-02-14T05:09:52.334Z,9.37
2023-02-14T05:12:19.162Z,9.87
2023-02-14T05:14:46.944Z,9.97
2023-02-14T05:17:13.879Z,9.87
2023-02-14T05:19:40.687Z,10.27
2023-02-14T05:22:39.941Z,8.93
2023-02-14T05:25:07.055Z,10.00
2023-02-14T05:27:33.841Z,9.13
2023-02-14T05:30:03.872Z,10.27
2023-02-14T05:32:30.673Z,9.83
2023-02-14T05:34:58.057Z,10.43
2023-02-14T05:37:25.747Z,10.30
2023-02-14T05:39:52.522Z,9.80
2023-02-14T05:42:19.513Z,10.63
2023-02-14T05:44:46.299Z,10.03
2023-02-14T05:47:13.323Z,10.30
2023-02-14T05:49:40.369Z,10.80
2023-02-14T05:52:07.517Z,9.47
2023-02-14T05:54:34.400Z,10.87
2023-02-14T05:57:01.237Z,10.93
2023-02-14T05:59:28.171Z,11.00
2023-02-14T06:01:55.026Z,10.93
2023-02-14T06:04:21.959Z,11.47
2023-02-14T06:06:48.924Z,10.60
2023-02-14T06:09:15.775Z,11.10
2023-02-14T06:11:42.638Z,11.33
2023-02-14T06:14:09.508Z,10.70
2023-02-14T06:16:36.535Z,12.00
2023-02-14T06:19:03.428Z,11.60
2023-02-14T06:21:30.283Z,11.53
2023-02-14T06:23:57.170Z,10.87
2023-02-14T06:26:27.847Z,10.77
2023-02-14T06:28:55.661Z,11.57
2023-02-14T06:31:22.652Z,12.33
2023-02-14T06:33:49.470Z,14.37
2023-02-14T06:36:16.856Z,12.30
2023-02-14T06:38:43.894Z,15.40
2023-02-14T06:41:11.769Z,12.87
2023-02-14T06:43:38.718Z,20.50
2023-02-14T06:46:05.993Z,14.57
2023-02-14T06:48:32.860Z,14.63
2023-02-14T06:50:59.929Z,15.07
2023-02-14T06:53:27.630Z,12.10
2023-02-14T06:55:54.486Z,27.80
2023-02-14T06:58:21.704Z,10.60
2023-02-14T07:00:48.566Z,11.27
2023-02-14T07:03:15.883Z,10.47
2023-02-14T07:05:45.186Z,10.90
2023-02-14T07:08:12.011Z,10.60
2023-02-14T07:10:38.935Z,11.10
2023-02-14T07:13:05.923Z,11.30
2023-02-14T07:15:32.966Z,11.10
2023-02-14T07:17:59.849Z,10.93
2023-02-14T07:20:26.977Z,10.90
2023-02-14T07:22:55.097Z,10.93
2023-02-14T07:25:22.160Z,10.90
2023-02-14T07:27:48.989Z,11.37
2023-02-14T07:30:16.136Z,10.80
2023-02-14T07:32:43.003Z,10.40
2023-02-14T07:35:10.450Z,10.30
2023-02-14T07:37:37.320Z,10.20
2023-02-14T07:40:14.331Z,9.90
2023-02-14T07:42:42.751Z,10.60
2023-02-14T07:45:21.294Z,9.80
2023-02-14T07:47:53.491Z,10.73
2023-02-14T07:50:22.335Z,10.43
2023-02-14T07:52:49.121Z,10.17
2023-02-14T07:55:16.474Z,9.83
2023-02-14T07:57:43.317Z,11.50
2023-02-14T08:00:10.530Z,11.20
2023-02-14T08:02:37.395Z,10.93
2023-02-14T08:05:04.369Z,10.60
2023-02-14T08:07:31.148Z,11.63
2023-02-14T08:09:58.048Z,10.73
2023-02-14T08:12:43.381Z,10.37
2023-02-14T08:15:28.709Z,11.07
2023-02-14T08:17:57.214Z,10.60
2023-02-14T08:20:24.005Z,10.77
2023-02-14T08:22:50.840Z,11.00
2023-02-14T08:25:17.779Z,11.90
2023-02-14T08:27:44.574Z,11.00
2023-02-14T08:30:11.975Z,10.93
2023-02-14T08:32:39.027Z,10.63
2023-02-14T08:35:06.612Z,11.53
2023-02-14T08:37:33.429Z,11.00
2023-02-14T08:40:00.256Z,10.40
2023-02-14T08:42:27.188Z,10.50
2023-02-14T08:44:53.999Z,10.90
2023-02-14T08:47:20.848Z,10.57
2023-02-14T08:49:47.842Z,11.80
2023-02-14T08:52:14.868Z,10.97
2023-02-14T08:54:41.804Z,10.43
2023-02-14T08:57:08.700Z,11.10
2023-02-14T08:59:35.565Z,10.30
2023-02-14T09:02:02.483Z,10.10
2023-02-14T09:04:29.418Z,10.60
2023-02-14T09:06:56.319Z,10.77
2023-02-14T09:09:23.204Z,9.70
2023-02-14T09:11:50.033Z,10.70
2023-02-14T09:14:17.297Z,10.97
2023-02-14T09:16:44.209Z,11.13
2023-02-14T09:19:11.675Z,10.97
2023-02-14T09:21:38.512Z,10.53
2023-02-14T09:24:05.345Z,10.53
2023-02-14T09:26:32.749Z,10.20
2023-02-14T09:28:59.550Z,11.17
2023-02-14T09:31:26.499Z,10.53
2023-02-14T09:34:11.950Z,11.27
2023-02-14T09:36:38.866Z,10.27
2023-02-14T09:39:05.897Z,10.97
2023-02-14T09:42:08.198Z,9.50
2023-02-14T09:44:44.317Z,10.83
2023-02-14T09:47:42.148Z,10.00
2023-02-14T09:50:19.211Z,10.03
2023-02-14T09:52:50.731Z,9.60
2023-02-14T09:55:18.411Z,9.83
2023-02-14T09:58:10.967Z,9.50
2023-02-14T10:00:53.207Z,9.80
2023-02-14T10:03:38.905Z,10.20
2023-02-14T10:06:26.194Z,10.30
2023-02-14T10:09:07.744Z,9.40
2023-02-14T10:11:35.355Z,9.90
2023-02-14T10:14:09.888Z,10.20
2023-02-14T10:17:12.582Z,9.90
2023-02-14T10:19:52.337Z,10.20
2023-02-14T10:22:23.872Z,9.67
2023-02-14T10:25:02.360Z,10.50
2023-02-14T10:27:36.552Z,10.27
2023-02-14T10:30:16.410Z,10.00
2023-02-14T10:32:49.133Z,9.73
2023-02-14T10:35:30.009Z,10.30
2023-02-14T10:38:17.449Z,10.17
2023-02-14T10:40:49.233Z,9.93
2023-02-14T10:44:01.803Z,10.23
2023-02-14T10:46:31.386Z,9.87
2023-02-14T10:49:24.310Z,10.07
2023-02-14T10:52:09.876Z,9.17
2023-02-14T10:54:43.831Z,9.53
2023-02-14T10:57:26.981Z,9.67
2023-02-14T11:00:10.961Z,10.13
2023-02-14T11:02:44.994Z,9.50
2023-02-14T11:05:31.552Z,10.40
2023-02-14T11:07:59.182Z,9.53
2023-02-14T11:10:30.913Z,10.80
2023-02-14T11:12:59.503Z,10.03
2023-02-14T11:15:35.861Z,9.93
2023-02-14T11:18:23.373Z,10.70
2023-02-14T11:21:11.774Z,10.90
2023-02-14T11:23:47.193Z,9.80
2023-02-14T11:26:25.043Z,10.20
2023-02-14T11:29:10.922Z,10.37
2023-02-14T11:31:39.710Z,10.00
2023-02-14T11:34:46.618Z,10.20
2023-02-14T11:37:23.004Z,10.47
2023-02-14T11:39:51.663Z,10.17
2023-02-14T11:42:47.741Z,10.30
2023-02-14T11:45:54.937Z,10.27
2023-02-14T11:48:37.384Z,9.23
2023-02-14T11:51:16.472Z,9.53
2023-02-14T11:53:48.554Z,9.60
2023-02-14T11:56:18.161Z,10.10
2023-02-14T11:58:45.068Z,9.73
2023-02-14T12:01:22.130Z,10.37
2023-02-14T12:03:49.906Z,10.17
2023-02-14T12:06:31.322Z,9.80
2023-02-14T12:09:23.026Z,10.00
2023-02-14T12:12:01.104Z,9.80
2023-02-14T12:14:33.476Z,9.53
2023-02-14T12:17:26.560Z,9.40
2023-02-14T12:20:19.625Z,9.77
2023-02-14T12:22:55.319Z,9.70
2023-02-14T12:25:34.196Z,9.90
2023-02-14T12:28:07.563Z,10.27
2023-02-14T12:30:35.483Z,10.20
2023-02-14T12:33:02.515Z,10.23
2023-02-14T12:35:44.288Z,10.07
2023-02-14T12:38:37.214Z,10.07
2023-02-14T12:41:31.699Z,10.50
2023-02-14T12:44:15.869Z,9.47
2023-02-14T12:46:55.672Z,9.77
2023-02-14T12:49:28.554Z,10.17
2023-02-14T12:52:10.792Z,10.50
2023-02-14T12:55:15.027Z,10.67
2023-02-14T12:57:56.548Z,10.50
2023-02-14T13:00:42.220Z,10.30
2023-02-14T13:03:18.007Z,10.03
2023-02-14T13:06:09.042Z,10.00
2023-02-14T13:09:11.683Z,10.00
2023-02-14T13:11:53.904Z,9.80
2023-02-14T13:14:45.386Z,9.83
2023-02-14T13:17:36.860Z,10.80
2023-02-14T13:20:32.289Z,10.53
2023-02-14T13:23:05.105Z,10.13
2023-02-14T13:25:49.846Z,11.10
2023-02-14T13:28:17.756Z,10.07
2023-02-14T13:30:44.813Z,9.33
2023-02-14T13:33:28.644Z,10.30
2023-02-14T13:36:00.271Z,10.63
2023-02-14T13:38:28.297Z,9.73
2023-02-14T13:40:57.745Z,10.77
2023-02-14T13:43:49.534Z,10.57
2023-02-14T13:46:20.231Z,10.10
2023-02-14T13:49:03.890Z,10.30
2023-02-14T13:52:03.800Z,10.70
2023-02-14T13:54:35.854Z,10.57
2023-02-14T13:57:25.009Z,10.43
2023-02-14T14:00:13.650Z,10.23
2023-02-14T14:02:51.272Z,10.33
2023-02-14T14:05:30.615Z,10.10
2023-02-14T14:08:27.138Z,10.40
2023-02-14T14:10:55.463Z,9.83
2023-02-14T14:13:40.691Z,10.20
2023-02-14T14:16:28.974Z,10.70
2023-02-14T14:19:23.891Z,10.83
2023-02-14T14:22:20.902Z,10.40
2023-02-14T14:25:10.485Z,10.30
2023-02-14T14:27:47.143Z,10.97
2023-02-14T14:30:30.844Z,11.07
2023-02-14T14:33:17.005Z,10.80
2023-02-14T14:36:02.669Z,11.27
2023-02-14T14:38:31.857Z,11.47
2023-02-14T14:41:00.831Z,12.37
2023-02-14T14:43:38.110Z,14.03
2023-02-14T14:46:10.814Z,14.07
2023-02-14T14:48:46.392Z,14.80
2023-02-14T14:51:21.907Z,15.37
2023-02-14T14:54:07.502Z,15.87
2023-02-14T14:56:44.749Z,15.37
2023-02-14T14:59:27.673Z,16.03
2023-02-14T15:01:55.154Z,15.43
2023-02-14T15:04:28.776Z,15.43
2023-02-14T15:07:32.888Z,16.10
2023-02-14T15:10:06.418Z,16.17
2023-02-14T15:12:53.589Z,16.83
2023-02-14T15:15:20.418Z,17.27
2023-02-14T15:17:47.543Z,16.83
2023-02-14T15:20:21.877Z,16.93
2023-02-14T15:22:52.058Z,17.67
2023-02-14T15:25:35.813Z,17.53
2023-02-14T15:28:03.624Z,17.53
2023-02-14T15:30:38.069Z,17.77
2023-02-14T15:33:08.351Z,17.97
2023-02-14T15:35:42.302Z,18.60
2023-02-14T15:38:11.959Z,18.13
2023-02-14T15:40:40.359Z,17.93
2023-02-14T15:43:19.546Z,17.90
2023-02-14T15:45:48.738Z,18.47
2023-02-14T15:48:19.455Z,17.70
2023-02-14T15:50:52.910Z,19.23
2023-02-14T15:53:19.653Z,18.40
2023-02-14T15:55:51.534Z,19.97
2023-02-14T15:58:33.060Z,19.37
2023-02-14T16:01:00.373Z,20.07
2023-02-14T16:03:33.828Z,20.37
2023-02-14T16:06:00.851Z,20.13
2023-02-14T16:08:33.601Z,20.67
2023-02-14T16:11:05.143Z,19.77
2023-02-14T16:13:34.982Z,21.47
2023-02-14T16:16:04.869Z,20.50
2023-02-14T16:18:45.219Z,20.90
2023-02-14T16:21:31.463Z,20.43
2023-02-14T16:24:18.775Z,20.37
2023-02-14T16:26:46.945Z,19.00
2023-02-14T16:29:16.444Z,20.43
2023-02-14T16:34:42.498Z,19.60
2023-02-14T16:37:20.128Z,18.87
2023-02-14T16:39:49.282Z,20.07
2023-02-14T16:42:18.281Z,19.77
2023-02-14T16:44:46.549Z,20.10
2023-02-14T16:47:15.813Z,18.83
2023-02-14T16:49:42.717Z,19.80
2023-02-14T16:52:23.819Z,20.30
2023-02-14T16:54:54.667Z,20.10
2023-02-14T16:57:27.824Z,20.43
2023-02-14T16:59:56.417Z,20.77
2023-02-14T17:02:26.297Z,20.90
2023-02-14T17:04:53.248Z,20.27
2023-02-14T17:07:20.925Z,20.80
2023-02-14T17:09:52.771Z,20.87
2023-02-14T17:12:23.994Z,20.17
2023-02-14T17:14:56.027Z,19.87
2023-02-14T17:17:22.901Z,19.47
2023-02-14T17:19:52.642Z,20.73
2023-02-14T17:22:20.032Z,20.80
2023-02-14T17:24:46.893Z,20.67
2023-02-14T17:27:13.680Z,21.70
2023-02-14T17:29:40.491Z,20.30
2023-02-14T17:32:10.506Z,19.87
2023-02-14T17:34:37.434Z,21.37
2023-02-14T17:37:06.772Z,20.43
2023-02-14T17:39:33.692Z,21.87
2023-02-14T17:42:00.658Z,21.47
2023-02-14T17:44:32.444Z,22.00
2023-02-14T17:46:59.250Z,21.70
2023-02-14T17:49:26.784Z,23.10
2023-02-14T17:51:56.851Z,21.90
2023-02-14T17:54:24.920Z,21.30
2023-02-14T17:56:52.146Z,21.90
2023-02-14T17:59:19.037Z,21.20
2023-02-14T18:01:45.893Z,22.03
2023-02-14T18:04:12.766Z,22.33
2023-02-14T18:06:40.372Z,22.00
2023-02-14T18:09:08.039Z,22.93
2023-02-14T18:11:34.918Z,23.17
2023-02-14T18:14:01.969Z,22.27
2023-02-14T18:16:28.880Z,23.93
2023-02-14T18:18:55.796Z,22.93
2023-02-14T18:21:24.579Z,22.70
2023-02-14T18:23:51.951Z,22.83
2023-02-14T18:26:19.589Z,22.67
2023-02-14T18:28:46.644Z,23.47
2023-02-14T18:31:16.252Z,23.47
2023-02-14T18:33:43.531Z,23.60
2023-02-14T18:36:16.547Z,24.07
2023-02-14T18:38:49.689Z,24.53
2023-02-14T18:41:20.003Z,22.90
2023-02-14T18:43:48.954Z,24.47
2023-02-14T18:46:18.900Z,25.27
2023-02-14T18:48:46.049Z,24.17
2023-02-14T18:51:25.838Z,24.23
2023-02-14T18:53:54.462Z,24.27
2023-02-14T18:56:25.445Z,24.60
2023-02-14T18:58:56.677Z,25.20
2023-02-14T19:01:27.809Z,25.27
2023-02-14T19:03:55.484Z,25.43
2023-02-14T19:06:22.973Z,24.80
2023-02-14T19:08:50.198Z,25.30
2023-02-14T19:11:19.770Z,26.70
2023-02-14T19:13:48.771Z,27.17
2023-02-14T19:16:25.823Z,27.20
2023-02-14T19:18:53.829Z,26.43
2023-02-14T19:21:30.722Z,26.13
2023-02-14T19:23:58.480Z,27.17
2023-02-14T19:26:29.666Z,26.53
2023-02-14T19:29:02.014Z,25.53
2023-02-14T19:31:29.627Z,26.50
2023-02-14T19:33:56.986Z,25.83
2023-02-14T19:36:24.348Z,27.17
2023-02-14T19:38:53.015Z,26.07
2023-02-14T19:41:26.968Z,25.97
2023-02-14T19:43:59.485Z,26.57
2023-02-14T19:46:27.703Z,26.97
2023-02-14T19:48:57.128Z,27.13
2023-02-14T19:51:26.691Z,26.97
2023-02-14T19:53:55.747Z,27.73
2023-02-14T19:56:28.733Z,26.67
2023-02-14T19:58:56.885Z,25.87
2023-02-14T20:01:31.952Z,26.93
2023-02-14T20:03:58.876Z,25.90
2023-02-14T20:06:33.267Z,25.53
2023-02-14T20:09:01.814Z,25.77
2023-02-14T20:11:51.679Z,26.40
2023-02-14T20:14:20.516Z,26.23
2023-02-14T20:16:48.929Z,25.50
2023-02-14T20:19:20.885Z,26.37
2023-02-14T20:21:50.209Z,27.17
2023-02-14T20:24:20.422Z,26.30
2023-02-14T20:26:48.682Z,26.53
2023-02-14T20:29:16.830Z,28.27
2023-02-14T20:31:47.164Z,26.47
2023-02-14T20:34:14.715Z,25.80
2023-02-14T20:36:44.099Z,26.33
2023-02-14T20:39:12.867Z,27.03
2023-02-14T20:41:39.702Z,26.63
2023-02-14T20:44:08.776Z,27.47
2023-02-14T20:46:42.384Z,28.33
2023-02-14T20:49:12.114Z,26.73
2023-02-14T20:51:39.501Z,27.30
2023-02-14T20:54:06.646Z,28.93
2023-02-14T20:56:33.743Z,28.67
2023-02-14T20:59:07.689Z,28.47
2023-02-14T21:01:34.674Z,28.80
2023-02-14T21:04:01.714Z,30.13
2023-02-14T21:06:31.521Z,29.17
2023-02-14T21:08:59.320Z,30.73
2023-02-14T21:11:31.230Z,30.30
2023-02-14T21:14:00.131Z,28.77
2023-02-14T21:16:29.401Z,29.73
2023-02-14T21:19:00.842Z,29.93
2023-02-14T21:21:34.884Z,29.53
2023-02-14T21:24:10.834Z,29.70
2023-02-14T21:26:38.528Z,28.77
2023-02-14T21:29:12.856Z,29.17
2023-02-14T21:31:40.050Z,29.73
2023-02-14T21:34:07.266Z,29.67
2023-02-14T21:36:37.917Z,29.30
2023-02-14T21:39:06.215Z,29.90
2023-02-14T21:41:34.360Z,30.10
2023-02-14T21:44:02.271Z,29.97
2023-02-14T21:46:31.839Z,31.23
2023-02-14T21:49:19.038Z,30.23
2023-02-14T21:51:46.872Z,29.63
2023-02-14T21:54:14.724Z,30.03
2023-02-14T21:56:41.923Z,30.90
2023-02-14T21:59:09.807Z,30.30
2023-02-14T22:01:40.461Z,30.77
2023-02-14T22:04:10.500Z,31.07
2023-02-14T22:06:39.886Z,30.33
2023-02-14T22:09:07.464Z,29.90
2023-02-14T22:11:35.193Z,30.77
2023-02-14T22:14:02.145Z,30.73
2023-02-14T22:16:29.428Z,29.40
2023-02-14T22:18:56.296Z,29.47
2023-02-14T22:21:25.166Z,30.97
2023-02-14T22:23:52.005Z,28.80
2023-02-14T22:26:24.449Z,29.37
2023-02-14T22:28:57.105Z,28.60
2023-02-14T22:31:25.908Z,28.80
2023-02-14T22:33:53.121Z,29.73
2023-02-14T22:36:20.255Z,28.43
2023-02-14T22:38:49.590Z,29.70
2023-02-14T22:41:19.977Z,27.83
2023-02-14T22:43:47.249Z,27.10
2023-02-14T22:46:22.686Z,28.27
2023-02-14T22:48:50.507Z,27.30
2023-02-14T22:51:29.356Z,26.87
2023-02-14T22:53:59.029Z,26.37
2023-02-14T22:56:28.779Z,27.63
2023-02-14T22:59:04.834Z,25.97
2023-02-14T23:01:32.953Z,25.97
2023-02-14T23:04:01.850Z,25.87
2023-02-14T23:06:31.041Z,25.83
2023-02-14T23:08:58.547Z,26.20
2023-02-14T23:11:28.238Z,26.13
2023-02-14T23:14:14.436Z,26.27
2023-02-14T23:17:00.351Z,25.57
2023-02-14T23:19:51.322Z,25.60
2023-02-14T23:22:20.448Z,25.70
2023-02-14T23:24:52.683Z,24.90
2023-02-14T23:27:22.116Z,24.77
2023-02-14T23:29:49.057Z,24.43
2023-02-14T23:32:16.518Z,25.90
2023-02-14T23:34:45.182Z,24.63
2023-02-14T23:37:13.714Z,25.63
2023-02-14T23:39:41.391Z,24.60
2023-02-14T23:42:14.981Z,26.43
2023-02-14T23:44:43.621Z,25.50
2023-02-14T23:47:11.893Z,26.00
2023-02-14T23:49:43.405Z,26.07
2023-02-14T23:52:13.139Z,25.70
2023-02-14T23:54:40.532Z,25.53
2023-02-14T23:57:08.804Z,25.93
2023-02-14T23:59:36.155Z,26.67
